CAE weather

Columbia Metropolitan Airport
Columbia, South Carolina, United States

Public forecast

Using degrees Fahrenheit for public forecast. Weather courtesy of forecast.io.

Current aviation weather report (METAR) for Columbia Metropolitan Airport

Retrieved 2019/11/12 03:56 UTC (45 minutes ago):

KCAE 120356Z 00000KT 10SM BKN150 12/05 A3003 RMK AO2 SLP168 T01170050

Aviation forecast (TAF) for Columbia Metropolitan Airport

Retrieved 2019-11-12 00:22 UTC (4 hours ago):

TAF KCAE 112320Z 1200/1224 21005KT P6SM BKN100 FM121300 32010G16KT 5SM SHRA OVC012 TEMPO 1215/1218 3SM SHRA OVC008 FM122100 36014G22KT P6SM BKN035